createdAt,value
2022-12-26T00:01:22.349Z,100890.11
2022-12-26T00:06:47.180Z,100879.62
2022-12-26T00:12:09.449Z,100869.84
2022-12-26T00:17:31.670Z,100844.97
2022-12-26T00:22:54.879Z,100818.44
2022-12-26T00:28:17.462Z,100819.30
2022-12-26T00:33:43.080Z,100802.23
2022-12-26T00:39:06.593Z,100790.61
2022-12-26T00:44:28.851Z,100794.13
2022-12-26T00:50:12.539Z,100773.75
2022-12-26T00:55:15.673Z,100755.20
2022-12-26T01:00:38.537Z,100736.58
2022-12-26T01:06:02.845Z,100720.48
2022-12-26T01:11:43.398Z,100713.45
2022-12-26T01:17:05.976Z,100723.92
2022-12-26T01:22:28.538Z,100714.83
2022-12-26T01:27:51.997Z,100715.61
2022-12-26T01:33:14.441Z,100710.28
2022-12-26T01:38:37.682Z,100701.39
2022-12-26T01:44:12.723Z,100681.56
2022-12-26T01:49:44.445Z,100666.32
2022-12-26T01:55:09.791Z,100652.84
2022-12-26T02:00:33.223Z,100646.58
2022-12-26T02:05:56.431Z,100625.02
2022-12-26T02:11:41.746Z,100606.25
2022-12-26T02:17:04.801Z,100608.82
2022-12-26T02:23:13.513Z,100598.17
2022-12-26T02:28:52.796Z,100566.23
2022-12-26T02:34:28.884Z,100567.00
2022-12-26T02:40:10.932Z,100552.73
2022-12-26T02:46:17.730Z,100549.99
2022-12-26T02:52:21.115Z,100516.23
2022-12-26T02:58:15.139Z,100491.42
2022-12-26T03:03:58.454Z,100467.47
2022-12-26T03:09:49.513Z,100466.45
2022-12-26T03:15:22.307Z,100472.45
2022-12-26T03:20:50.811Z,100462.48
2022-12-26T03:26:42.165Z,100457.95
2022-12-26T03:32:05.197Z,100448.16
2022-12-26T03:43:47.895Z,100435.56
2022-12-26T03:49:38.579Z,100439.45
2022-12-26T03:55:41.718Z,100443.87
2022-12-26T04:01:25.119Z,100430.23
2022-12-26T04:07:18.936Z,100428.46
2022-12-26T04:13:01.987Z,100411.53
2022-12-26T04:18:47.591Z,100412.10
2022-12-26T04:24:34.009Z,100424.47
2022-12-26T04:30:14.383Z,100414.77
2022-12-26T04:36:20.539Z,100414.67
2022-12-26T04:42:03.665Z,100406.67
2022-12-26T04:47:26.492Z,100397.92
2022-12-26T04:53:01.355Z,100372.84
2022-12-26T04:58:24.676Z,100363.05
2022-12-26T05:04:04.750Z,100355.91
2022-12-26T05:09:35.585Z,100353.91
2022-12-26T05:14:57.860Z,100333.25
2022-12-26T05:20:38.562Z,100322.80
2022-12-26T05:26:20.656Z,100349.23
2022-12-26T05:31:44.175Z,100335.75
2022-12-26T05:37:09.908Z,100323.19
2022-12-26T05:42:32.109Z,100303.69
2022-12-26T05:47:54.321Z,100306.91
2022-12-26T05:53:17.415Z,100306.84
2022-12-26T05:58:40.599Z,100286.28
2022-12-26T06:04:06.141Z,100296.84
2022-12-26T06:09:30.933Z,100293.22
2022-12-26T06:14:53.279Z,100293.70
2022-12-26T06:20:16.280Z,100291.04
2022-12-26T06:25:38.934Z,100290.09
2022-12-26T06:31:01.262Z,100293.51
2022-12-26T06:36:27.923Z,100289.48
2022-12-26T06:41:50.116Z,100274.72
2022-12-26T06:47:12.364Z,100273.59
2022-12-26T06:52:35.182Z,100266.14
2022-12-26T06:57:58.439Z,100265.93
2022-12-26T07:03:20.817Z,100257.65
2022-12-26T07:08:43.040Z,100255.99
2022-12-26T07:14:06.226Z,100253.86
2022-12-26T07:19:29.463Z,100237.48
2022-12-26T07:24:51.672Z,100246.98
2022-12-26T07:30:14.809Z,100245.85
2022-12-26T07:35:37.160Z,100249.94
2022-12-26T07:41:02.770Z,100255.69
2022-12-26T07:46:25.182Z,100254.55
2022-12-26T07:51:47.527Z,100255.17
2022-12-26T07:57:46.344Z,100246.12
2022-12-26T08:02:34.191Z,100232.66
2022-12-26T08:07:59.216Z,100237.88
2022-12-26T08:13:21.514Z,100241.94
2022-12-26T08:18:45.391Z,100236.52
2022-12-26T08:24:07.660Z,100242.38
2022-12-26T08:29:30.014Z,100243.66
2022-12-26T08:34:53.149Z,100240.77
2022-12-26T08:40:26.806Z,100238.97
2022-12-26T08:45:41.126Z,100244.52
2022-12-26T08:51:15.109Z,100238.06
2022-12-26T08:56:40.148Z,100236.86
2022-12-26T09:02:02.689Z,100246.97
2022-12-26T09:07:26.578Z,100243.39
2022-12-26T09:12:48.960Z,100238.95
2022-12-26T09:18:12.762Z,100245.36
2022-12-26T09:23:36.267Z,100257.30
2022-12-26T09:28:59.657Z,100253.20
2022-12-26T09:34:23.376Z,100256.49
2022-12-26T09:39:46.208Z,100268.58
2022-12-26T09:45:25.341Z,100253.77
2022-12-26T09:50:51.506Z,100241.27
2022-12-26T10:01:58.930Z,100235.64
2022-12-26T10:07:26.247Z,100224.52
2022-12-26T10:13:22.606Z,100222.58
2022-12-26T10:19:32.685Z,100229.53
2022-12-26T10:24:55.799Z,100225.92
2022-12-26T10:30:23.357Z,100229.21
2022-12-26T10:35:52.205Z,100215.94
2022-12-26T10:41:25.524Z,100213.59
2022-12-26T10:47:16.044Z,100229.02
2022-12-26T10:52:35.586Z,100209.16
2022-12-26T10:57:59.772Z,100214.39
2022-12-26T11:03:25.941Z,100217.16
2022-12-26T11:08:54.940Z,100196.61
2022-12-26T11:14:36.355Z,100222.27
2022-12-26T11:20:22.786Z,100219.60
2022-12-26T11:25:46.777Z,100213.52
2022-12-26T11:31:13.088Z,100204.36
2022-12-26T11:36:40.711Z,100203.86
2022-12-26T11:42:04.695Z,100205.08
2022-12-26T11:47:35.996Z,100227.89
2022-12-26T11:53:07.164Z,100220.20
2022-12-26T11:58:33.676Z,100233.15
2022-12-26T12:04:01.237Z,100231.31
2022-12-26T12:09:53.741Z,100253.64
2022-12-26T12:15:41.729Z,100246.20
2022-12-26T12:21:33.168Z,100272.03
2022-12-26T12:27:06.261Z,100288.78
2022-12-26T12:38:53.152Z,100259.66
2022-12-26T12:44:23.422Z,100259.23
2022-12-26T12:50:15.343Z,100260.66
2022-12-26T12:56:05.340Z,100249.42
2022-12-26T13:01:36.147Z,100254.66
2022-12-26T13:07:20.222Z,100239.95
2022-12-26T13:12:48.926Z,100251.44
2022-12-26T13:18:23.191Z,100240.72
2022-12-26T13:24:19.644Z,100245.72
2022-12-26T13:29:55.170Z,100253.02
2022-12-26T13:35:37.069Z,100243.77
2022-12-26T13:41:24.712Z,100236.84
2022-12-26T13:46:58.465Z,100256.25
2022-12-26T13:52:31.207Z,100275.15
2022-12-26T13:57:56.727Z,100283.66
2022-12-26T14:03:36.271Z,100288.43
2022-12-26T14:09:30.694Z,100294.64
2022-12-26T14:15:14.552Z,100278.58
2022-12-26T14:21:03.527Z,100272.36
2022-12-26T14:26:40.193Z,100289.67
2022-12-26T14:32:35.784Z,100287.58
2022-12-26T14:38:30.095Z,100303.66
2022-12-26T14:43:58.101Z,100304.87
2022-12-26T14:49:47.498Z,100301.73
2022-12-26T14:55:19.691Z,100307.06
2022-12-26T15:00:44.905Z,100292.09
2022-12-26T15:06:17.980Z,100286.33
2022-12-26T15:12:25.880Z,100312.31
2022-12-26T15:17:58.929Z,100316.42
2022-12-26T15:23:41.397Z,100323.61
2022-12-26T15:29:35.063Z,100320.56
2022-12-26T15:35:40.253Z,100312.97
2022-12-26T15:41:13.331Z,100308.71
2022-12-26T15:46:52.465Z,100326.98
2022-12-26T15:52:46.480Z,100297.17
2022-12-26T15:58:28.414Z,100326.25
2022-12-26T16:03:58.604Z,100325.97
2022-12-26T16:09:35.602Z,100309.89
2022-12-26T16:15:18.587Z,100336.08
2022-12-26T16:21:04.901Z,100345.20
2022-12-26T16:26:31.234Z,100345.20
2022-12-26T16:31:54.340Z,100358.92
2022-12-26T16:37:17.933Z,100357.62
2022-12-26T16:42:51.610Z,100344.44
2022-12-26T16:48:16.028Z,100344.44
2022-12-26T16:53:50.875Z,100358.72
2022-12-26T16:59:18.476Z,100370.29
2022-12-26T17:04:43.053Z,100366.96
2022-12-26T17:10:13.766Z,100371.23
2022-12-26T17:15:46.188Z,100382.59
2022-12-26T17:21:21.728Z,100386.13
2022-12-26T17:26:48.693Z,100382.47
2022-12-26T17:32:14.731Z,100383.56
2022-12-26T17:37:40.588Z,100375.29
2022-12-26T17:43:13.068Z,100370.50
2022-12-26T17:48:36.161Z,100369.52
2022-12-26T17:54:04.099Z,100383.56
2022-12-26T17:59:28.029Z,100387.45
2022-12-26T18:04:50.618Z,100376.61
2022-12-26T18:10:14.236Z,100383.06
2022-12-26T18:15:38.755Z,100371.14
2022-12-26T18:21:01.382Z,100370.17
2022-12-26T18:26:35.677Z,100370.17
2022-12-26T18:31:58.806Z,100379.41
2022-12-26T18:37:22.739Z,100372.34
2022-12-26T18:42:45.028Z,100362.92
2022-12-26T18:48:08.236Z,100351.83
2022-12-26T18:53:31.477Z,100352.39
2022-12-26T18:58:58.072Z,100355.30
2022-12-26T19:04:21.202Z,100356.35
2022-12-26T19:09:43.803Z,100356.59
2022-12-26T19:15:06.582Z,100370.29
2022-12-26T19:20:39.081Z,100365.28
2022-12-26T19:25:59.747Z,100372.45
2022-12-26T19:31:25.889Z,100377.70
2022-12-26T19:36:48.973Z,100380.60
2022-12-26T19:42:12.215Z,100380.60
2022-12-26T19:47:35.535Z,100384.98
2022-12-26T19:53:00.189Z,100382.94
2022-12-26T19:58:25.058Z,100367.61
2022-12-26T20:03:50.154Z,100364.85
2022-12-26T20:09:18.904Z,100360.12
2022-12-26T20:14:43.940Z,100377.57
2022-12-26T20:20:07.898Z,100377.22
2022-12-26T20:25:33.144Z,100378.31
2022-12-26T20:30:58.184Z,100364.62
2022-12-26T20:36:30.274Z,100376.73
2022-12-26T20:41:55.350Z,100388.83
2022-12-26T20:47:18.333Z,100383.08
2022-12-26T20:52:41.164Z,100385.41
2022-12-26T20:58:03.918Z,100391.62
2022-12-26T21:03:27.227Z,100389.06
2022-12-26T21:08:52.241Z,100385.64
2022-12-26T21:14:19.261Z,100390.14
2022-12-26T21:19:42.828Z,100408.11
2022-12-26T21:25:05.119Z,100394.95
2022-12-26T21:30:28.157Z,100406.40
2022-12-26T21:35:52.867Z,100409.08
2022-12-26T21:41:21.652Z,100422.55
2022-12-26T21:46:44.785Z,100415.05
2022-12-26T21:52:07.516Z,100423.73
2022-12-26T21:57:33.133Z,100417.77
2022-12-26T22:03:14.467Z,100423.34
2022-12-26T22:08:37.012Z,100440.45
2022-12-26T22:14:01.241Z,100457.06
2022-12-26T22:24:57.376Z,100459.41
2022-12-26T22:30:20.091Z,100457.25
2022-12-26T22:35:42.493Z,100446.56
2022-12-26T22:41:12.495Z,100455.22
2022-12-26T22:46:34.889Z,100447.59
2022-12-26T22:51:57.189Z,100477.48
2022-12-26T22:57:20.635Z,100490.46
2022-12-26T23:02:42.890Z,100527.89
2022-12-26T23:08:05.561Z,100539.75
2022-12-26T23:13:30.761Z,100544.36
2022-12-26T23:19:23.219Z,100576.09
2022-12-26T23:24:47.895Z,100572.92
2022-12-26T23:30:20.091Z,100600.86
2022-12-26T23:35:43.262Z,100620.63
2022-12-26T23:41:05.503Z,100628.36
2022-12-26T23:46:29.200Z,100632.52
2022-12-26T23:51:51.603Z,100629.58
2022-12-26T23:57:13.923Z,100627.57
